Time;durP1;ratioP1;P1;durP2;ratioP2;P2;SDS_P1;SDS_P2;PMS_P1;PMS_P2;Temp;Humidity;BMP_temperature;BMP_pressure;BME280_temperature;BME280_humidity;BME280_pressure;Samples;Min_cycle;Max_cycle;Signal;HPM_P1;HPM_P2
2023/10/19 00:01:09;;;;;;;;;;;;;;;17.65;64.34;95544.41;4217565;28;5703;-59
2023/10/19 00:03:13;;;;;;;;;;;;;;;17.63;64.51;95550.03;4218116;28;5604;-59
2023/10/19 00:05:16;;;;;;;;;;;;;;;17.62;64.49;95543.06;4222575;28;5675;-59
2023/10/19 00:07:19;;;;;;;;;;;;;;;17.63;64.76;95542.00;4219779;28;5597;-59
2023/10/19 00:09:22;;;;;;;;;;;;;;;17.63;64.67;95542.00;4217876;28;5604;-59
2023/10/19 00:11:26;;;;;;;;;;;;;;;17.63;64.75;95534.00;4217580;28;5616;-59
2023/10/19 00:13:29;;;;;;;;;;;;;;;17.63;64.73;95534.00;4217625;28;6346;-59
2023/10/19 00:15:34;;;;;;;;;;;;;;;17.61;64.80;95524.63;4210343;28;5695;-59
2023/10/19 00:17:38;;;;;;;;;;;;;;;17.56;64.79;95520.13;4226841;28;5677;-59
2023/10/19 00:19:57;;;;;;;;;;;;;;;17.54;65.13;95524.09;4218398;28;5747;-60
2023/10/19 00:22:07;;;;;;;;;;;;;;;17.53;65.19;95517.97;4217941;28;5100;-60
2023/10/19 00:24:10;;;;;;;;;;;;;;;17.54;65.26;95521.44;4218437;28;5618;-59
2023/10/19 00:26:17;;;;;;;;;;;;;;;17.54;65.22;95521.44;4217320;28;6440;-60
2023/10/19 00:28:22;;;;;;;;;;;;;;;17.56;65.39;95524.66;4217519;28;5823;-59
2023/10/19 00:30:29;;;;;;;;;;;;;;;17.56;65.20;95509.44;4212489;28;5738;-59
2023/10/19 00:32:34;;;;;;;;;;;;;;;17.59;65.09;95502.75;4221112;28;5820;-60
2023/10/19 00:34:38;;;;;;;;;;;;;;;17.61;65.25;95500.59;4217078;28;5640;-59
2023/10/19 00:36:41;;;;;;;;;;;;;;;17.61;65.32;95506.75;4216717;28;7679;-59
2023/10/19 00:38:52;;;;;;;;;;;;;;;17.62;65.28;95510.22;4219322;28;6438;-59
2023/10/19 00:40:58;;;;;;;;;;;;;;;17.62;65.34;95512.88;4216137;28;5604;-59
2023/10/19 00:43:10;;;;;;;;;;;;;;;17.64;65.43;95526.78;4217435;28;5746;-60
2023/10/19 00:45:13;;;;;;;;;;;;;;;17.64;65.51;95530.25;4216533;28;5722;-59
2023/10/19 00:47:18;;;;;;;;;;;;;;;17.63;65.42;95525.97;4217660;28;5628;-59
2023/10/19 00:49:23;;;;;;;;;;;;;;;17.65;65.32;95529.19;4217204;28;6373;-60
2023/10/19 00:51:29;;;;;;;;;;;;;;;17.65;65.48;95534.50;4219961;28;5624;-59
2023/10/19 00:53:31;;;;;;;;;;;;;;;17.66;65.40;95536.13;4217216;28;5632;-59
2023/10/19 00:55:35;;;;;;;;;;;;;;;17.67;65.57;95526.25;4215942;28;5608;-59
2023/10/19 00:57:42;;;;;;;;;;;;;;;17.67;65.46;95516.38;4214728;28;5694;-59
2023/10/19 00:59:47;;;;;;;;;;;;;;;17.68;65.25;95522.50;4216797;28;6347;-59
2023/10/19 01:01:53;;;;;;;;;;;;;;;17.67;65.54;95515.56;4216965;28;5612;-59
2023/10/19 01:03:58;;;;;;;;;;;;;;;17.68;65.52;95511.81;4216262;28;5623;-60
2023/10/19 01:06:00;;;;;;;;;;;;;;;17.69;65.58;95505.44;4217726;28;5620;-60
2023/10/19 01:08:14;;;;;;;;;;;;;;;17.68;65.54;95496.59;4220017;28;5706;-60
2023/10/19 01:10:20;;;;;;;;;;;;;;;17.67;65.73;95499.53;4219856;28;5655;-60
2023/10/19 01:12:32;;;;;;;;;;;;;;;17.69;65.58;95502.75;4218476;28;5735;-60
2023/10/19 01:14:37;;;;;;;;;;;;;;;17.70;65.62;95501.69;4216169;28;5699;-60
2023/10/19 01:16:41;;;;;;;;;;;;;;;17.70;65.58;95480.31;4219726;28;5642;-60
2023/10/19 01:18:45;;;;;;;;;;;;;;;17.71;65.68;95479.25;4219802;28;5620;-60
2023/10/19 01:20:51;;;;;;;;;;;;;;;17.71;65.64;95482.72;4219273;28;5612;-60
2023/10/19 01:23:08;;;;;;;;;;;;;;;17.72;65.58;95486.97;4219009;28;6392;-60
2023/10/19 01:25:24;;;;;;;;;;;;;;;17.73;65.92;95483.22;4220180;28;5635;-60
2023/10/19 01:27:28;;;;;;;;;;;;;;;17.72;65.82;95486.97;4220213;28;5608;-61
2023/10/19 01:29:32;;;;;;;;;;;;;;;17.74;65.50;95489.38;4211330;28;5620;-60
2023/10/19 01:31:39;;;;;;;;;;;;;;;17.74;65.58;95478.69;4219957;28;7071;-60
2023/10/19 01:33:41;;;;;;;;;;;;;;;17.73;65.83;95483.22;4220154;28;5938;-60
2023/10/19 01:38:07;;;;;;;;;;;;;;;17.73;65.94;95471.75;4215741;28;6443;-60
2023/10/19 01:40:15;;;;;;;;;;;;;;;17.72;65.85;95470.16;4211668;28;5608;-60
2023/10/19 01:42:18;;;;;;;;;;;;;;;17.72;65.99;95470.94;4219899;28;5609;-60
2023/10/19 01:44:21;;;;;;;;;;;;;;;17.73;65.82;95469.06;4218588;28;5681;-60
2023/10/19 01:46:25;;;;;;;;;;;;;;;17.73;65.99;95463.72;4224517;28;5761;-60
2023/10/19 01:48:33;;;;;;;;;;;;;;;17.73;65.91;95453.03;4219035;28;5100;-61
2023/10/19 01:50:39;;;;;;;;;;;;;;;17.74;65.87;95451.97;4212346;28;5627;-59
2023/10/19 01:52:40;;;;;;;;;;;;;;;17.72;65.84;95438.88;4219622;28;5604;-59
2023/10/19 01:54:46;;;;;;;;;;;;;;;17.72;65.82;95430.84;4218498;28;5102;-59
2023/10/19 01:56:50;;;;;;;;;;;;;;;17.70;65.82;95427.66;4219674;28;5732;-58
2023/10/19 01:58:54;;;;;;;;;;;;;;;17.69;65.88;95422.59;4219224;28;5616;-59
2023/10/19 02:01:00;;;;;;;;;;;;;;;17.68;65.92;95411.06;4219675;28;5686;-59
2023/10/19 02:03:07;;;;;;;;;;;;;;;17.70;66.08;95410.81;4218682;28;5612;-60
2023/10/19 02:05:15;;;;;;;;;;;;;;;17.71;65.85;95404.41;4218716;28;5611;-60
2023/10/19 02:07:18;;;;;;;;;;;;;;;17.72;65.95;95400.66;4212611;28;6301;-60
2023/10/19 02:09:22;;;;;;;;;;;;;;;17.72;66.01;95400.66;4219307;28;5740;-60
2023/10/19 02:11:28;;;;;;;;;;;;;;;17.73;66.07;95400.38;4218522;28;5686;-60
2023/10/19 02:13:30;;;;;;;;;;;;;;;17.73;65.95;95407.59;4196452;28;5689;-60
2023/10/19 02:15:35;;;;;;;;;;;;;;;17.75;65.98;95405.44;4219357;28;5719;-60
2023/10/19 02:17:37;;;;;;;;;;;;;;;17.74;65.98;95403.84;4218687;28;5622;-60
2023/10/19 02:19:41;;;;;;;;;;;;;;;17.77;66.03;95415.88;4219006;28;5620;-60
2023/10/19 02:21:47;;;;;;;;;;;;;;;17.76;66.08;95407.03;4217779;28;5620;-60
2023/10/19 02:23:51;;;;;;;;;;;;;;;17.76;66.07;95412.38;4219586;28;5678;-60
2023/10/19 02:25:53;;;;;;;;;;;;;;;17.76;66.28;95407.03;4219193;28;5706;-59
2023/10/19 02:27:57;;;;;;;;;;;;;;;17.76;66.16;95407.03;4219016;28;6293;-60
2023/10/19 02:29:59;;;;;;;;;;;;;;;17.75;66.16;95406.25;4219033;28;5671;-60
2023/10/19 02:32:04;;;;;;;;;;;;;;;17.75;66.43;95403.56;4218172;28;5608;-60
2023/10/19 02:34:09;;;;;;;;;;;;;;;17.75;66.17;95402.78;4219169;28;6317;-60
2023/10/19 02:36:14;;;;;;;;;;;;;;;17.75;66.26;95392.09;4218885;28;6302;-57
2023/10/19 02:38:16;;;;;;;;;;;;;;;17.75;66.28;95392.09;4221195;28;5704;-60
2023/10/19 02:40:21;;;;;;;;;;;;;;;17.76;66.49;95391.00;4220705;28;5714;-60
2023/10/19 02:42:23;;;;;;;;;;;;;;;17.76;66.34;95385.66;4217851;28;5719;-60
2023/10/19 02:44:30;;;;;;;;;;;;;;;17.75;66.33;95384.88;4218037;28;5620;-60
2023/10/19 02:46:33;;;;;;;;;;;;;;;17.75;66.35;95376.03;4211003;28;5611;-60
2023/10/19 02:48:36;;;;;;;;;;;;;;;17.75;66.54;95384.06;4218658;28;5692;-60
2023/10/19 02:50:38;;;;;;;;;;;;;;;17.75;66.54;95376.03;4218736;28;5624;-60
2023/10/19 02:52:42;;;;;;;;;;;;;;;17.75;66.44;95381.38;4218465;28;5605;-60
2023/10/19 02:54:44;;;;;;;;;;;;;;;17.73;66.46;95370.19;4218645;28;5624;-59
2023/10/19 02:56:49;;;;;;;;;;;;;;;17.73;66.60;95365.63;4218415;28;5623;-59
2023/10/19 02:58:51;;;;;;;;;;;;;;;17.73;66.53;95364.84;4218335;28;5826;-59
2023/10/19 03:00:56;;;;;;;;;;;;;;;17.70;66.70;95355.50;4218535;28;5603;-60
2023/10/19 03:02:58;;;;;;;;;;;;;;;17.70;66.75;95360.03;4218316;28;6321;-60
2023/10/19 03:05:09;;;;;;;;;;;;;;;17.69;66.90;95351.22;4218505;28;5710;-60
2023/10/19 03:07:12;;;;;;;;;;;;;;;17.70;66.82;95341.34;4219850;28;5695;-60
2023/10/19 03:09:15;;;;;;;;;;;;;;;17.70;66.76;95334.13;4217828;28;5662;-60
2023/10/19 03:11:17;;;;;;;;;;;;;;;17.71;67.08;95334.91;4218616;28;5612;-60
2023/10/19 03:13:21;;;;;;;;;;;;;;;17.70;66.88;95331.44;4217984;28;5782;-60
2023/10/19 03:15:23;;;;;;;;;;;;;;;17.72;66.93;95331.97;4216649;28;5629;-60
2023/10/19 03:17:29;;;;;;;;;;;;;;;17.70;66.89;95323.44;4220562;28;5695;-60
2023/10/19 03:19:31;;;;;;;;;;;;;;;17.72;66.90;95337.31;4216042;28;5615;-60
2023/10/19 03:21:41;;;;;;;;;;;;;;;17.72;66.98;95341.84;4209639;28;5765;-59
2023/10/19 03:23:43;;;;;;;;;;;;;;;17.72;67.18;95331.16;4203359;28;5642;-60
2023/10/19 03:26:22;;;;;;;;;;;;;;;17.72;67.03;95339.97;4217978;28;5608;-60
2023/10/19 03:28:20;;;;;;;;;;;;;;;17.73;67.05;95327.41;4217126;28;5753;-60
2023/10/19 03:30:25;;;;;;;;;;;;;;;17.71;67.09;95333.03;4216068;28;5777;-60
2023/10/19 03:32:35;;;;;;;;;;;;;;;17.72;66.98;95320.47;4218232;28;5616;-60
2023/10/19 03:34:38;;;;;;;;;;;;;;;17.72;67.03;95312.47;4217361;28;5623;-60
2023/10/19 03:36:42;;;;;;;;;;;;;;;17.73;67.07;95306.03;4217888;28;5624;-59
2023/10/19 03:38:44;;;;;;;;;;;;;;;17.74;67.13;95302.28;4218341;28;5608;-60
2023/10/19 03:40:51;;;;;;;;;;;;;;;17.73;67.10;95298.81;4217450;28;5711;-60
2023/10/19 03:42:55;;;;;;;;;;;;;;;17.73;67.15;95298.81;4217892;28;5600;-59
2023/10/19 03:44:59;;;;;;;;;;;;;;;17.74;67.12;95294.25;4199908;28;5693;-60
2023/10/19 03:47:04;;;;;;;;;;;;;;;17.73;67.20;95293.47;4217877;28;5611;-60
2023/10/19 03:49:13;;;;;;;;;;;;;;;17.73;67.01;95288.13;4217627;28;5627;-60
2023/10/19 03:51:17;;;;;;;;;;;;;;;17.74;67.25;95271.00;4217016;28;5624;-60
2023/10/19 03:53:21;;;;;;;;;;;;;;;17.72;67.29;95283.06;4217899;28;5608;-60
2023/10/19 03:55:24;;;;;;;;;;;;;;;17.75;67.05;95287.84;4213979;28;5628;-60
2023/10/19 03:57:29;;;;;;;;;;;;;;;17.76;67.22;95289.44;4215417;28;5628;-60
2023/10/19 03:59:34;;;;;;;;;;;;;;;17.75;67.26;95293.19;4214150;28;5076;-60
2023/10/19 04:01:38;;;;;;;;;;;;;;;17.74;67.20;95276.34;4219579;28;5700;-60
2023/10/19 04:03:41;;;;;;;;;;;;;;;17.76;67.48;95278.75;4217354;28;6053;-60
2023/10/19 04:05:46;;;;;;;;;;;;;;;17.76;67.28;95284.09;4217435;28;5735;-60
2023/10/19 04:07:54;;;;;;;;;;;;;;;17.74;67.37;95275.56;4212322;28;5778;-60
2023/10/19 04:09:57;;;;;;;;;;;;;;;17.75;67.54;95277.94;4217452;28;5770;-60
2023/10/19 04:12:02;;;;;;;;;;;;;;;17.75;67.37;95274.47;4214784;28;5742;-60
2023/10/19 04:14:05;;;;;;;;;;;;;;;17.76;67.36;95284.09;4214075;28;5710;-60
2023/10/19 04:16:10;;;;;;;;;;;;;;;17.75;67.42;95283.31;4218084;28;5628;-60
2023/10/19 04:18:13;;;;;;;;;;;;;;;17.74;67.45;95279.03;4214908;28;5766;-60
2023/10/19 04:20:28;;;;;;;;;;;;;;;17.76;67.58;95278.75;4217124;28;5624;-60
2023/10/19 04:22:33;;;;;;;;;;;;;;;17.77;67.57;95266.97;4223863;28;5675;-60
2023/10/19 04:24:36;;;;;;;;;;;;;;;17.77;67.76;95264.31;4213755;28;6318;-60
2023/10/19 04:26:39;;;;;;;;;;;;;;;17.77;67.59;95264.31;4217449;28;5627;-60
2023/10/19 04:28:50;;;;;;;;;;;;;;;17.78;67.65;95265.09;4219917;28;5725;-60
2023/10/19 04:30:52;;;;;;;;;;;;;;;17.77;67.72;95268.84;4215828;28;5604;-60
2023/10/19 04:32:57;;;;;;;;;;;;;;;17.77;67.57;95258.16;4231002;28;5226;-60
2023/10/19 04:35:03;;;;;;;;;;;;;;;17.77;67.63;95248.28;4220161;28;7793;-60
2023/10/19 04:37:06;;;;;;;;;;;;;;;17.77;67.77;95250.16;4215011;28;5759;-58
2023/10/19 04:39:13;;;;;;;;;;;;;;;17.75;67.93;95250.44;4217674;28;6408;-59
2023/10/19 04:41:16;;;;;;;;;;;;;;;17.75;67.94;95245.09;4217455;28;5810;-59
2023/10/19 04:43:21;;;;;;;;;;;;;;;17.73;68.06;95236.53;4217539;28;5793;-59
2023/10/19 04:45:24;;;;;;;;;;;;;;;17.72;67.92;95240.28;4217869;28;6245;-60
2023/10/19 04:47:28;;;;;;;;;;;;;;;17.71;67.93;95244.03;4215487;28;5829;-60
2023/10/19 04:49:31;;;;;;;;;;;;;;;17.71;68.07;95233.34;4216054;28;5696;-62
2023/10/19 04:51:36;;;;;;;;;;;;;;;17.71;67.98;95222.66;4200601;28;5630;-59
2023/10/19 04:53:38;;;;;;;;;;;;;;;17.70;67.83;95221.06;4207370;28;5635;-60
2023/10/19 04:55:45;;;;;;;;;;;;;;;17.69;67.79;95225.63;4200093;28;6870;-61
2023/10/19 04:57:48;;;;;;;;;;;;;;;17.70;67.71;95223.75;4211177;28;5691;-60
2023/10/19 04:59:51;;;;;;;;;;;;;;;17.71;67.66;95241.38;4208386;28;5624;-60
2023/10/19 05:01:55;;;;;;;;;;;;;;;17.70;67.41;95253.94;4212574;28;5755;-60
2023/10/19 05:04:02;;;;;;;;;;;;;;;17.71;67.43;95258.22;4201907;28;5690;-60
2023/10/19 05:06:05;;;;;;;;;;;;;;;17.72;67.60;95234.94;4208685;28;5629;-60
2023/10/19 05:08:08;;;;;;;;;;;;;;;17.72;67.55;95208.22;4208272;28;5635;-61
2023/10/19 05:10:12;;;;;;;;;;;;;;;17.72;67.43;95221.59;4208431;28;5739;-60
2023/10/19 05:12:16;;;;;;;;;;;;;;;17.70;67.43;95211.19;4214792;28;5747;-60
2023/10/19 05:14:20;;;;;;;;;;;;;;;17.70;67.49;95205.84;4208972;28;5631;-60
2023/10/19 05:16:22;;;;;;;;;;;;;;;17.70;67.33;95205.03;4215926;28;5748;-60
2023/10/19 05:18:26;;;;;;;;;;;;;;;17.70;67.40;95202.38;4208245;28;5612;-60
2023/10/19 05:20:29;;;;;;;;;;;;;;;17.69;67.29;95200.78;4209698;28;5628;-60
2023/10/19 05:22:32;;;;;;;;;;;;;;;17.70;67.19;95208.50;4208153;28;5623;-60
2023/10/19 05:24:36;;;;;;;;;;;;;;;17.69;67.26;95203.44;4203879;28;5631;-60
2023/10/19 05:26:39;;;;;;;;;;;;;;;17.70;67.07;95189.00;4201567;28;5642;-60
2023/10/19 05:28:43;;;;;;;;;;;;;;;17.70;66.98;95180.97;4208640;28;5628;-61
2023/10/19 05:30:46;;;;;;;;;;;;;;;17.69;67.12;95176.72;4204766;28;5624;-60
2023/10/19 05:32:49;;;;;;;;;;;;;;;17.69;67.09;95174.84;4216834;28;5849;-60
2023/10/19 05:34:52;;;;;;;;;;;;;;;17.68;67.12;95170.53;4212694;28;5659;-60
2023/10/19 05:36:58;;;;;;;;;;;;;;;17.68;67.12;95164.41;4214222;28;6319;-60
2023/10/19 05:39:03;;;;;;;;;;;;;;;17.69;66.89;95171.38;4214872;28;5620;-60
2023/10/19 05:41:07;;;;;;;;;;;;;;;17.68;66.92;95161.72;4215128;28;5675;-60
2023/10/19 05:43:10;;;;;;;;;;;;;;;17.68;66.88;95161.72;4211254;28;5724;-63
2023/10/19 05:45:16;;;;;;;;;;;;;;;17.69;66.77;95158.00;4206790;28;5690;-63
2023/10/19 05:47:19;;;;;;;;;;;;;;;17.68;66.62;95159.06;4215292;28;5612;-63
2023/10/19 05:49:22;;;;;;;;;;;;;;;17.68;66.78;95164.41;4209085;28;5089;-63
2023/10/19 05:51:26;;;;;;;;;;;;;;;17.67;66.56;95165.47;4215901;28;7737;-63
2023/10/19 05:53:30;;;;;;;;;;;;;;;17.69;66.60;95166.03;4210358;28;5623;-63
2023/10/19 05:55:34;;;;;;;;;;;;;;;17.68;66.87;95172.41;4203265;28;5829;-63
2023/10/19 05:57:39;;;;;;;;;;;;;;;17.68;66.83;95169.75;4213605;28;5612;-63
2023/10/19 05:59:42;;;;;;;;;;;;;;;17.67;66.74;95176.97;4203079;28;5141;-63
2023/10/19 06:01:47;;;;;;;;;;;;;;;17.67;66.69;95176.97;4216571;28;5667;-63
2023/10/19 06:03:51;;;;;;;;;;;;;;;17.68;66.54;95167.06;4214093;28;6373;-63
2023/10/19 06:05:56;;;;;;;;;;;;;;;17.67;66.95;95170.81;4217419;28;5615;-63
2023/10/19 06:07:59;;;;;;;;;;;;;;;17.67;66.75;95163.59;4217717;28;5619;-63
2023/10/19 06:10:06;;;;;;;;;;;;;;;17.67;66.71;95157.47;4218884;28;6448;-63
2023/10/19 06:12:09;;;;;;;;;;;;;;;17.67;66.84;95170.81;4211336;28;5721;-63
2023/10/19 06:14:12;;;;;;;;;;;;;;;17.67;66.80;95162.81;4211788;28;5642;-63
2023/10/19 06:16:15;;;;;;;;;;;;;;;17.66;66.63;95172.66;4212672;28;5628;-63
2023/10/19 06:18:19;;;;;;;;;;;;;;;17.66;66.81;95171.88;4217460;28;5724;-63
2023/10/19 06:20:26;;;;;;;;;;;;;;;17.66;66.94;95166.53;4219659;28;5707;-63
2023/10/19 06:22:28;;;;;;;;;;;;;;;17.66;66.97;95166.53;4215322;28;5608;-63
2023/10/19 06:24:31;;;;;;;;;;;;;;;17.66;66.80;95172.66;4207219;28;5625;-63
2023/10/19 06:26:35;;;;;;;;;;;;;;;17.66;66.76;95161.97;4216062;28;5691;-63
2023/10/19 06:28:39;;;;;;;;;;;;;;;17.67;66.96;95168.94;4219629;28;5625;-62
2023/10/19 06:30:42;;;;;;;;;;;;;;;17.68;66.91;95161.72;4219256;28;5616;-62
2023/10/19 06:32:50;;;;;;;;;;;;;;;17.68;66.91;95159.06;4219493;28;5620;-62
2023/10/19 06:34:55;;;;;;;;;;;;;;;17.68;66.96;95167.88;4205838;28;5785;-62
2023/10/19 06:36:59;;;;;;;;;;;;;;;17.69;67.11;95176.72;4210522;28;5625;-61
2023/10/19 06:39:05;;;;;;;;;;;;;;;17.70;67.11;95172.97;4219470;28;5608;-62
2023/10/19 06:41:11;;;;;;;;;;;;;;;17.69;66.84;95176.72;4214928;28;5769;-62
2023/10/19 06:43:14;;;;;;;;;;;;;;;17.69;66.83;95160.69;4216967;28;5718;-62
2023/10/19 06:45:18;;;;;;;;;;;;;;;17.64;66.87;95137.41;4213919;28;5631;-62
2023/10/19 06:47:22;;;;;;;;;;;;;;;17.62;66.92;95123.53;4219204;28;5604;-62
2023/10/19 06:49:25;;;;;;;;;;;;;;;17.62;67.24;95117.41;4216730;28;5733;-62
2023/10/19 06:51:30;;;;;;;;;;;;;;;17.61;67.03;95113.13;4218066;28;5648;-62
2023/10/19 06:53:33;;;;;;;;;;;;;;;17.61;67.16;95116.59;4219047;28;6327;-62
2023/10/19 06:55:36;;;;;;;;;;;;;;;17.63;67.26;95109.09;4203680;28;5717;-62
2023/10/19 06:57:38;;;;;;;;;;;;;;;17.65;66.95;95106.16;4212831;28;5615;-62
2023/10/19 06:59:41;;;;;;;;;;;;;;;17.67;67.01;95122.72;4218791;28;5640;-64
2023/10/19 07:01:44;;;;;;;;;;;;;;;17.68;67.18;95117.09;4215796;28;5608;-64
2023/10/19 07:03:46;;;;;;;;;;;;;;;17.70;67.06;95120.31;4203093;28;5725;-63
2023/10/19 07:05:49;;;;;;;;;;;;;;;17.72;66.99;95122.72;4216131;28;5728;-64
2023/10/19 07:07:56;;;;;;;;;;;;;;;17.71;67.13;95127.25;4201966;28;5619;-63
2023/10/19 07:09:59;;;;;;;;;;;;;;;17.73;67.10;95126.97;4202433;28;5835;-63
2023/10/19 07:12:02;;;;;;;;;;;;;;;17.74;67.27;95121.34;4211289;28;5620;-62
2023/10/19 07:14:07;;;;;;;;;;;;;;;17.74;67.13;95126.69;4218789;28;5691;-62
2023/10/19 07:16:12;;;;;;;;;;;;;;;17.74;67.20;95121.34;4218196;28;5612;-62
2023/10/19 07:18:16;;;;;;;;;;;;;;;17.75;67.08;95130.16;4218516;28;5616;-62
2023/10/19 07:20:25;;;;;;;;;;;;;;;17.74;67.21;95136.59;4217671;28;5718;-62
2023/10/19 07:22:29;;;;;;;;;;;;;;;17.74;67.29;95125.88;4218420;28;5703;-61
2023/10/19 07:24:36;;;;;;;;;;;;;;;17.73;67.23;95124.28;4210057;28;5620;-62
2023/10/19 07:26:51;;;;;;;;;;;;;;;17.72;67.27;95123.50;4217882;28;5726;-62
2023/10/19 07:28:54;;;;;;;;;;;;;;;17.72;67.40;95114.69;4215451;28;5608;-62
2023/10/19 07:30:57;;;;;;;;;;;;;;;17.72;67.29;95120.84;4215650;28;5691;-62
2023/10/19 07:33:00;;;;;;;;;;;;;;;17.72;67.40;95120.84;4214933;28;5640;-62
2023/10/19 07:35:03;;;;;;;;;;;;;;;17.73;67.55;95119.75;4210260;28;5899;-62
2023/10/19 07:37:12;;;;;;;;;;;;;;;17.74;67.54;95125.88;4210258;28;5600;-62
2023/10/19 07:39:18;;;;;;;;;;;;;;;17.75;67.29;95116.78;4205765;28;5706;-62
2023/10/19 07:41:23;;;;;;;;;;;;;;;17.79;67.28;95112.50;4213650;28;5692;-62
2023/10/19 07:43:26;;;;;;;;;;;;;;;17.81;67.17;95112.22;4208044;28;5674;-62
2023/10/19 07:45:31;;;;;;;;;;;;;;;17.84;67.41;95112.47;4209384;28;5608;-62
2023/10/19 07:47:34;;;;;;;;;;;;;;;17.87;67.38;95114.56;4216648;28;5745;-61
2023/10/19 07:49:38;;;;;;;;;;;;;;;17.87;67.42;95111.88;4207776;28;5626;-61
2023/10/19 07:51:47;;;;;;;;;;;;;;;17.91;67.19;95117.50;4214409;28;6313;-61
2023/10/19 07:53:49;;;;;;;;;;;;;;;17.91;67.46;95091.56;4214090;28;5984;-62
2023/10/19 07:55:52;;;;;;;;;;;;;;;17.92;67.32;95089.69;4208137;28;7805;-62
2023/10/19 07:57:59;;;;;;;;;;;;;;;17.96;67.58;95088.81;4203067;28;5608;-62
2023/10/19 08:00:04;;;;;;;;;;;;;;;17.98;67.51;95099.25;4203371;28;5614;-62
2023/10/19 08:02:08;;;;;;;;;;;;;;;17.99;67.39;95096.28;4208160;28;5642;-62
2023/10/19 08:04:12;;;;;;;;;;;;;;;18.00;67.39;95089.84;4210420;28;5642;-62
2023/10/19 08:06:14;;;;;;;;;;;;;;;18.02;67.38;95095.75;4207838;28;6363;-62
2023/10/19 08:08:17;;;;;;;;;;;;;;;18.03;67.36;95099.22;4206092;28;5855;-62
2023/10/19 08:10:21;;;;;;;;;;;;;;;18.04;67.51;95101.59;4216166;28;5746;-63
2023/10/19 08:12:24;;;;;;;;;;;;;;;18.05;67.50;95105.06;4216356;28;5799;-62
2023/10/19 08:14:30;;;;;;;;;;;;;;;18.07;67.75;95107.47;4207994;28;5658;-62
2023/10/19 08:16:34;;;;;;;;;;;;;;;18.06;67.69;95104.00;4207809;28;5787;-62
2023/10/19 08:18:36;;;;;;;;;;;;;;;18.07;67.51;95104.78;4215376;28;5601;-62
2023/10/19 08:20:39;;;;;;;;;;;;;;;18.07;67.51;95102.13;4216545;28;5608;-62
2023/10/19 08:22:41;;;;;;;;;;;;;;;18.07;67.79;95105.56;4207421;28;5619;-62
2023/10/19 08:24:45;;;;;;;;;;;;;;;18.07;67.63;95102.91;4214320;28;5736;-61
2023/10/19 08:26:48;;;;;;;;;;;;;;;18.08;67.61;95098.34;4209065;28;5600;-62
2023/10/19 08:28:51;;;;;;;;;;;;;;;18.08;67.69;95090.34;4210613;28;5809;-62
2023/10/19 08:31:00;;;;;;;;;;;;;;;18.09;67.59;95089.25;4215905;28;5620;-62
2023/10/19 08:33:06;;;;;;;;;;;;;;;18.09;67.86;95081.22;4212093;28;5631;-62
2023/10/19 08:35:11;;;;;;;;;;;;;;;18.11;67.83;95090.56;4212360;28;5617;-62
2023/10/19 08:37:14;;;;;;;;;;;;;;;18.13;67.75;95092.97;4207239;28;5836;-62
2023/10/19 08:39:17;;;;;;;;;;;;;;;18.14;67.69;95091.91;4216007;28;5639;-62
2023/10/19 08:41:20;;;;;;;;;;;;;;;18.16;67.74;95095.09;4216072;28;5768;-62
2023/10/19 08:43:25;;;;;;;;;;;;;;;18.16;67.84;95084.38;4207892;28;5726;-62
2023/10/19 08:45:30;;;;;;;;;;;;;;;18.17;67.83;95085.97;4216075;28;5616;-62
2023/10/19 08:47:36;;;;;;;;;;;;;;;18.17;67.80;95081.41;4207251;28;5766;-62
2023/10/19 08:49:39;;;;;;;;;;;;;;;18.19;67.82;95083.81;4208755;28;5600;-62
2023/10/19 08:51:45;;;;;;;;;;;;;;;18.19;67.91;95079.25;4207503;28;6207;-60
2023/10/19 08:53:50;;;;;;;;;;;;;;;18.20;67.72;95067.47;4215652;28;5710;-62
2023/10/19 08:55:54;;;;;;;;;;;;;;;18.21;67.91;95060.25;4207709;28;5699;-62
2023/10/19 08:57:58;;;;;;;;;;;;;;;18.21;67.60;95050.34;4215849;28;5958;-62
2023/10/19 09:00:06;;;;;;;;;;;;;;;18.22;67.65;95053.81;4207288;28;5620;-63
2023/10/19 09:02:08;;;;;;;;;;;;;;;18.21;67.81;95053.03;4210732;28;5634;-62
2023/10/19 09:04:16;;;;;;;;;;;;;;;18.22;67.94;95043.91;4207377;28;5722;-63
2023/10/19 09:06:19;;;;;;;;;;;;;;;18.22;67.62;95041.25;4204622;28;5588;-63
2023/10/19 09:08:22;;;;;;;;;;;;;;;18.23;67.90;95044.72;4215510;28;6429;-63
2023/10/19 09:10:26;;;;;;;;;;;;;;;18.23;67.73;95036.69;4207577;28;5638;-62
2023/10/19 09:12:29;;;;;;;;;;;;;;;18.23;67.85;95028.66;4215541;28;5597;-62
2023/10/19 09:14:35;;;;;;;;;;;;;;;18.22;67.98;95019.84;4215525;28;5092;-63
2023/10/19 09:16:38;;;;;;;;;;;;;;;18.24;67.76;95016.91;4208335;28;6416;-61
2023/10/19 09:18:41;;;;;;;;;;;;;;;18.24;67.78;95014.25;4205300;28;5878;-62
2023/10/19 09:20:53;;;;;;;;;;;;;;;18.24;67.65;95014.25;4206801;28;5799;-62
2023/10/19 09:22:57;;;;;;;;;;;;;;;18.25;67.78;95018.50;4207227;28;5915;-62
2023/10/19 09:25:03;;;;;;;;;;;;;;;18.26;67.69;95023.56;4202689;28;7380;-62
2023/10/19 09:27:07;;;;;;;;;;;;;;;18.26;67.90;95022.78;4216763;28;5754;-62
2023/10/19 09:29:18;;;;;;;;;;;;;;;18.26;68.02;95015.53;4213111;28;5635;-63
2023/10/19 09:31:24;;;;;;;;;;;;;;;18.28;67.72;94999.19;4217808;28;5904;-62
2023/10/19 09:33:27;;;;;;;;;;;;;;;18.29;68.00;94998.13;4218859;28;5786;-62
2023/10/19 09:35:31;;;;;;;;;;;;;;;18.31;67.74;95012.00;4218704;28;5643;-62
2023/10/19 09:37:35;;;;;;;;;;;;;;;18.33;68.00;95009.84;4218726;28;5860;-62
2023/10/19 09:39:39;;;;;;;;;;;;;;;18.37;67.66;95005.53;4217860;28;5699;-62
2023/10/19 09:41:42;;;;;;;;;;;;;;;18.40;67.91;95004.94;4211577;28;5724;-62
2023/10/19 09:43:46;;;;;;;;;;;;;;;18.43;67.88;94995.53;4214196;28;6294;-62
2023/10/19 09:45:53;;;;;;;;;;;;;;;18.45;67.98;94996.84;4208299;28;5853;-62
2023/10/19 09:47:56;;;;;;;;;;;;;;;18.48;68.14;94984.78;4218686;28;6424;-62
2023/10/19 09:49:59;;;;;;;;;;;;;;;18.50;67.79;94988.78;4214547;28;5970;-62
2023/10/19 09:52:04;;;;;;;;;;;;;;;18.54;67.88;94978.28;4217973;28;5620;-62
2023/10/19 09:54:23;;;;;;;;;;;;;;;18.57;67.94;94983.88;4212907;28;5710;-62
2023/10/19 09:56:31;;;;;;;;;;;;;;;18.60;67.53;94982.50;4217637;28;5681;-62
2023/10/19 09:58:38;;;;;;;;;;;;;;;18.63;67.56;94980.03;4210354;28;5636;-63
2023/10/19 10:00:45;;;;;;;;;;;;;;;18.66;67.34;94977.91;4216770;28;5716;-62
2023/10/19 10:02:48;;;;;;;;;;;;;;;18.66;67.50;94985.94;4210034;28;5631;-62
2023/10/19 10:04:51;;;;;;;;;;;;;;;18.67;67.66;94982.16;4212776;28;6376;-62
2023/10/19 10:07:01;;;;;;;;;;;;;;;18.70;67.48;94982.41;4209986;28;5813;-61
2023/10/19 10:09:11;;;;;;;;;;;;;;;18.72;67.19;94984.78;4210136;28;5703;-62
2023/10/19 10:11:21;;;;;;;;;;;;;;;18.72;67.09;94976.75;4216567;28;5778;-62
2023/10/19 10:13:38;;;;;;;;;;;;;;;18.69;66.97;94980.81;4208956;28;6361;-62
2023/10/19 10:15:42;;;;;;;;;;;;;;;18.70;67.02;94986.97;4202863;28;5619;-63
2023/10/19 10:17:53;;;;;;;;;;;;;;;18.68;66.94;94983.75;4216047;28;5740;-63
2023/10/19 10:20:18;;;;;;;;;;;;;;;18.67;67.06;94987.50;4217573;28;5676;-62
2023/10/19 10:22:21;;;;;;;;;;;;;;;18.67;66.90;94987.50;4207967;28;5604;-63
2023/10/19 10:24:24;;;;;;;;;;;;;;;18.68;67.06;94995.25;4202233;28;5623;-63
2023/10/19 10:26:35;;;;;;;;;;;;;;;18.68;66.89;94989.09;4209520;28;5838;-63
2023/10/19 10:28:37;;;;;;;;;;;;;;;18.69;66.77;94993.38;4201233;28;5634;-63
2023/10/19 10:31:16;;;;;;;;;;;;;;;18.68;66.77;94999.81;4204254;28;5841;-63
2023/10/19 10:33:41;;;;;;;;;;;;;;;18.66;66.62;94986.72;4214639;28;5718;-63
2023/10/19 10:35:56;;;;;;;;;;;;;;;18.69;66.70;94990.69;4212348;28;5729;-63
2023/10/19 10:37:59;;;;;;;;;;;;;;;18.71;66.61;94985.88;4212735;28;5084;-63
2023/10/19 10:40:03;;;;;;;;;;;;;;;18.71;66.70;94985.88;4204889;28;5623;-62
2023/10/19 10:42:09;;;;;;;;;;;;;;;18.70;66.56;94982.41;4207542;28;5944;-63
2023/10/19 10:44:12;;;;;;;;;;;;;;;18.71;66.22;94993.91;4212211;28;5748;-63
2023/10/19 10:46:15;;;;;;;;;;;;;;;18.72;66.30;94993.63;4217634;28;5745;-63
2023/10/19 10:48:19;;;;;;;;;;;;;;;18.74;66.61;94987.97;4208873;28;5632;-63
2023/10/19 10:50:23;;;;;;;;;;;;;;;18.76;66.51;94989.25;4209401;28;5604;-63
2023/10/19 10:52:29;;;;;;;;;;;;;;;18.78;66.52;94995.13;4217016;28;5846;-62
2023/10/19 10:54:33;;;;;;;;;;;;;;;18.79;66.35;94986.00;4209582;28;5718;-62
2023/10/19 10:56:41;;;;;;;;;;;;;;;18.80;66.36;94992.97;4209330;28;5712;-63
2023/10/19 10:58:46;;;;;;;;;;;;;;;18.82;66.51;94981.97;4215438;28;5733;-62
2023/10/19 11:00:51;;;;;;;;;;;;;;;18.84;66.35;94979.81;4209592;28;9351;-62
2023/10/19 11:03:03;;;;;;;;;;;;;;;18.85;66.57;94973.34;4212668;28;5711;-62